sensor_id;sensor_type;location;lat;lon;timestamp;temperature;humidity
19037;DHT22;9651;49.138;8.900;2023-04-24T00:04:01;12.00;99.90
19037;DHT22;9651;49.138;8.900;2023-04-24T00:08:05;12.00;99.90
19037;DHT22;9651;49.138;8.900;2023-04-24T00:12:07;12.00;99.90
19037;DHT22;9651;49.138;8.900;2023-04-24T00:16:09;12.00;99.90
19037;DHT22;9651;49.138;8.900;2023-04-24T00:20:11;12.00;99.90
19037;DHT22;9651;49.138;8.900;2023-04-24T00:24:16;12.10;99.90
19037;DHT22;9651;49.138;8.900;2023-04-24T00:28:18;12.10;99.90
19037;DHT22;9651;49.138;8.900;2023-04-24T00:32:20;12.10;99.90
19037;DHT22;9651;49.138;8.900;2023-04-24T00:36:23;12.20;99.90
19037;DHT22;9651;49.138;8.900;2023-04-24T00:40:28;12.30;99.90
19037;DHT22;9651;49.138;8.900;2023-04-24T00:44:30;12.30;99.90
19037;DHT22;9651;49.138;8.900;2023-04-24T00:48:32;12.30;99.90
19037;DHT22;9651;49.138;8.900;2023-04-24T00:52:34;12.30;99.90
19037;DHT22;9651;49.138;8.900;2023-04-24T00:56:39;12.40;99.90
19037;DHT22;9651;49.138;8.900;2023-04-24T01:00:41;12.40;99.90
19037;DHT22;9651;49.138;8.900;2023-04-24T01:04:43;12.50;99.90
19037;DHT22;9651;49.138;8.900;2023-04-24T01:08:47;12.50;99.90
19037;DHT22;9651;49.138;8.900;2023-04-24T01:12:51;12.50;99.90
19037;DHT22;9651;49.138;8.900;2023-04-24T01:16:53;12.40;99.90
19037;DHT22;9651;49.138;8.900;2023-04-24T01:20:58;12.40;99.90
19037;DHT22;9651;49.138;8.900;2023-04-24T01:25:02;12.40;99.90
19037;DHT22;9651;49.138;8.900;2023-04-24T01:29:04;12.40;99.90
19037;DHT22;9651;49.138;8.900;2023-04-24T01:33:06;12.40;99.90
19037;DHT22;9651;49.138;8.900;2023-04-24T01:37:08;12.40;99.90
19037;DHT22;9651;49.138;8.900;2023-04-24T01:41:12;12.40;99.90
19037;DHT22;9651;49.138;8.900;2023-04-24T01:45:14;12.40;99.90
19037;DHT22;9651;49.138;8.900;2023-04-24T01:49:16;12.30;99.90
19037;DHT22;9651;49.138;8.900;2023-04-24T01:53:19;12.30;99.90
19037;DHT22;9651;49.138;8.900;2023-04-24T01:57:23;12.30;99.90
19037;DHT22;9651;49.138;8.900;2023-04-24T02:01:25;12.20;99.90
19037;DHT22;9651;49.138;8.900;2023-04-24T02:05:27;12.20;99.90
19037;DHT22;9651;49.138;8.900;2023-04-24T02:09:30;12.20;99.90
19037;DHT22;9651;49.138;8.900;2023-04-24T02:13:33;12.20;99.90
19037;DHT22;9651;49.138;8.900;2023-04-24T02:17:35;12.20;99.90
19037;DHT22;9651;49.138;8.900;2023-04-24T02:21:38;12.20;99.90
19037;DHT22;9651;49.138;8.900;2023-04-24T02:25:43;12.20;99.90
19037;DHT22;9651;49.138;8.900;2023-04-24T02:29:46;12.20;99.90
19037;DHT22;9651;49.138;8.900;2023-04-24T02:33:48;12.20;99.90
19037;DHT22;9651;49.138;8.900;2023-04-24T02:37:50;12.10;99.90
19037;DHT22;9651;49.138;8.900;2023-04-24T02:41:52;12.00;99.90
19037;DHT22;9651;49.138;8.900;2023-04-24T02:45:55;11.90;99.90
19037;DHT22;9651;49.138;8.900;2023-04-24T02:49:57;11.80;99.90
19037;DHT22;9651;49.138;8.900;2023-04-24T02:53:59;11.70;99.90
19037;DHT22;9651;49.138;8.900;2023-04-24T02:58:01;11.60;99.90
19037;DHT22;9651;49.138;8.900;2023-04-24T03:02:04;11.50;99.90
19037;DHT22;9651;49.138;8.900;2023-04-24T03:06:06;11.50;99.90
19037;DHT22;9651;49.138;8.900;2023-04-24T03:10:09;11.50;99.90
19037;DHT22;9651;49.138;8.900;2023-04-24T03:14:11;11.50;99.90
19037;DHT22;9651;49.138;8.900;2023-04-24T03:18:14;11.60;99.90
19037;DHT22;9651;49.138;8.900;2023-04-24T03:22:16;11.60;99.90
19037;DHT22;9651;49.138;8.900;2023-04-24T03:26:19;11.70;99.90
19037;DHT22;9651;49.138;8.900;2023-04-24T03:30:35;11.70;99.90
19037;DHT22;9651;49.138;8.900;2023-04-24T03:34:39;11.80;99.90
19037;DHT22;9651;49.138;8.900;2023-04-24T03:38:43;11.80;99.90
19037;DHT22;9651;49.138;8.900;2023-04-24T03:43:01;11.80;99.90
19037;DHT22;9651;49.138;8.900;2023-04-24T03:47:03;11.80;99.90
19037;DHT22;9651;49.138;8.900;2023-04-24T03:51:08;11.70;99.90
19037;DHT22;9651;49.138;8.900;2023-04-24T03:55:12;11.70;99.90
19037;DHT22;9651;49.138;8.900;2023-04-24T03:59:18;11.60;99.90
19037;DHT22;9651;49.138;8.900;2023-04-24T04:03:28;11.40;99.90
19037;DHT22;9651;49.138;8.900;2023-04-24T04:07:31;11.20;99.90
19037;DHT22;9651;49.138;8.900;2023-04-24T04:11:35;11.00;99.90
19037;DHT22;9651;49.138;8.900;2023-04-24T04:15:37;10.80;99.90
19037;DHT22;9651;49.138;8.900;2023-04-24T04:19:39;10.60;99.90
19037;DHT22;9651;49.138;8.900;2023-04-24T04:23:43;10.60;99.90
19037;DHT22;9651;49.138;8.900;2023-04-24T04:27:52;10.50;99.90
19037;DHT22;9651;49.138;8.900;2023-04-24T04:31:55;10.40;99.90
19037;DHT22;9651;49.138;8.900;2023-04-24T04:35:57;10.40;99.90
19037;DHT22;9651;49.138;8.900;2023-04-24T04:40:04;10.40;99.90
19037;DHT22;9651;49.138;8.900;2023-04-24T04:44:13;10.50;99.90
19037;DHT22;9651;49.138;8.900;2023-04-24T04:48:16;10.50;99.90
19037;DHT22;9651;49.138;8.900;2023-04-24T04:52:19;10.30;99.90
19037;DHT22;9651;49.138;8.900;2023-04-24T04:56:40;10.20;99.90
19037;DHT22;9651;49.138;8.900;2023-04-24T05:00:42;10.30;99.90
19037;DHT22;9651;49.138;8.900;2023-04-24T05:04:54;10.30;99.90
19037;DHT22;9651;49.138;8.900;2023-04-24T05:08:56;10.40;99.90
19037;DHT22;9651;49.138;8.900;2023-04-24T05:13:10;10.40;99.90
19037;DHT22;9651;49.138;8.900;2023-04-24T05:17:12;10.30;99.90
19037;DHT22;9651;49.138;8.900;2023-04-24T05:21:14;10.30;99.90
19037;DHT22;9651;49.138;8.900;2023-04-24T05:25:20;10.30;99.90
19037;DHT22;9651;49.138;8.900;2023-04-24T05:29:30;10.30;99.90
19037;DHT22;9651;49.138;8.900;2023-04-24T05:33:32;10.40;99.90
19037;DHT22;9651;49.138;8.900;2023-04-24T05:37:34;10.50;99.90
19037;DHT22;9651;49.138;8.900;2023-04-24T05:41:37;10.80;99.90
19037;DHT22;9651;49.138;8.900;2023-04-24T05:45:40;11.20;99.90
19037;DHT22;9651;49.138;8.900;2023-04-24T05:49:42;11.70;99.90
19037;DHT22;9651;49.138;8.900;2023-04-24T05:53:44;12.10;99.90
19037;DHT22;9651;49.138;8.900;2023-04-24T05:57:46;12.40;99.90
19037;DHT22;9651;49.138;8.900;2023-04-24T06:01:50;12.60;99.90
19037;DHT22;9651;49.138;8.900;2023-04-24T06:05:55;12.90;99.90
19037;DHT22;9651;49.138;8.900;2023-04-24T06:09:57;13.20;99.90
19037;DHT22;9651;49.138;8.900;2023-04-24T06:13:59;13.50;99.90
19037;DHT22;9651;49.138;8.900;2023-04-24T06:18:14;13.80;99.90
19037;DHT22;9651;49.138;8.900;2023-04-24T06:22:16;13.90;99.90
19037;DHT22;9651;49.138;8.900;2023-04-24T06:26:18;14.20;99.90
19037;DHT22;9651;49.138;8.900;2023-04-24T06:30:20;14.70;99.90
19037;DHT22;9651;49.138;8.900;2023-04-24T06:34:24;15.00;99.90
19037;DHT22;9651;49.138;8.900;2023-04-24T06:38:26;15.10;99.90
19037;DHT22;9651;49.138;8.900;2023-04-24T06:42:30;15.40;99.90
19037;DHT22;9651;49.138;8.900;2023-04-24T06:46:32;15.30;99.90
19037;DHT22;9651;49.138;8.900;2023-04-24T06:50:35;15.20;99.90
19037;DHT22;9651;49.138;8.900;2023-04-24T06:54:37;14.80;99.90
19037;DHT22;9651;49.138;8.900;2023-04-24T06:58:38;14.50;99.90
19037;DHT22;9651;49.138;8.900;2023-04-24T07:02:41;14.60;99.90
19037;DHT22;9651;49.138;8.900;2023-04-24T07:06:45;14.80;99.90
19037;DHT22;9651;49.138;8.900;2023-04-24T07:10:48;14.30;99.90
19037;DHT22;9651;49.138;8.900;2023-04-24T07:14:50;14.10;99.90
19037;DHT22;9651;49.138;8.900;2023-04-24T07:18:52;14.10;99.90
19037;DHT22;9651;49.138;8.900;2023-04-24T07:22:55;14.20;99.90
19037;DHT22;9651;49.138;8.900;2023-04-24T07:26:57;14.30;99.90
19037;DHT22;9651;49.138;8.900;2023-04-24T07:30:59;14.70;99.90
19037;DHT22;9651;49.138;8.900;2023-04-24T07:35:01;14.90;99.90
19037;DHT22;9651;49.138;8.900;2023-04-24T07:39:04;15.20;99.90
19037;DHT22;9651;49.138;8.900;2023-04-24T07:43:06;14.70;99.90
19037;DHT22;9651;49.138;8.900;2023-04-24T07:47:08;14.30;99.90
19037;DHT22;9651;49.138;8.900;2023-04-24T07:51:11;14.10;99.90
19037;DHT22;9651;49.138;8.900;2023-04-24T07:55:15;14.10;99.90
19037;DHT22;9651;49.138;8.900;2023-04-24T07:59:17;13.90;99.90
19037;DHT22;9651;49.138;8.900;2023-04-24T08:03:19;13.70;99.90
19037;DHT22;9651;49.138;8.900;2023-04-24T08:07:21;13.70;99.90
19037;DHT22;9651;49.138;8.900;2023-04-24T08:11:25;13.90;99.90
19037;DHT22;9651;49.138;8.900;2023-04-24T08:15:27;14.10;99.90
19037;DHT22;9651;49.138;8.900;2023-04-24T08:19:29;13.90;99.90
19037;DHT22;9651;49.138;8.900;2023-04-24T08:23:31;13.60;99.90
19037;DHT22;9651;49.138;8.900;2023-04-24T08:27:34;13.50;99.90
19037;DHT22;9651;49.138;8.900;2023-04-24T08:31:37;13.30;99.90
19037;DHT22;9651;49.138;8.900;2023-04-24T08:35:39;13.20;99.90
19037;DHT22;9651;49.138;8.900;2023-04-24T08:39:41;13.10;99.90
19037;DHT22;9651;49.138;8.900;2023-04-24T08:43:45;13.10;99.90
19037;DHT22;9651;49.138;8.900;2023-04-24T08:47:48;13.20;99.90
19037;DHT22;9651;49.138;8.900;2023-04-24T08:51:50;13.40;99.90
19037;DHT22;9651;49.138;8.900;2023-04-24T08:55:55;14.30;99.90
19037;DHT22;9651;49.138;8.900;2023-04-24T08:59:59;15.50;99.90
19037;DHT22;9651;49.138;8.900;2023-04-24T09:04:02;16.50;99.90
19037;DHT22;9651;49.138;8.900;2023-04-24T09:08:05;16.90;99.90
19037;DHT22;9651;49.138;8.900;2023-04-24T09:12:08;17.30;99.90
19037;DHT22;9651;49.138;8.900;2023-04-24T09:16:13;18.00;99.90
19037;DHT22;9651;49.138;8.900;2023-04-24T09:20:16;18.70;99.90
19037;DHT22;9651;49.138;8.900;2023-04-24T09:24:20;19.30;99.90
19037;DHT22;9651;49.138;8.900;2023-04-24T09:28:27;19.00;99.90
19037;DHT22;9651;49.138;8.900;2023-04-24T09:32:32;18.80;99.90
19037;DHT22;9651;49.138;8.900;2023-04-24T09:36:36;18.90;99.90
19037;DHT22;9651;49.138;8.900;2023-04-24T09:40:39;19.10;99.90
19037;DHT22;9651;49.138;8.900;2023-04-24T09:44:42;19.10;99.90
19037;DHT22;9651;49.138;8.900;2023-04-24T09:48:45;19.40;99.90
19037;DHT22;9651;49.138;8.900;2023-04-24T09:52:56;18.90;99.90
19037;DHT22;9651;49.138;8.900;2023-04-24T09:56:58;17.10;99.90
19037;DHT22;9651;49.138;8.900;2023-04-24T10:01:00;16.30;99.90
19037;DHT22;9651;49.138;8.900;2023-04-24T10:05:04;15.70;99.90
19037;DHT22;9651;49.138;8.900;2023-04-24T10:09:06;15.10;99.90
19037;DHT22;9651;49.138;8.900;2023-04-24T10:13:12;15.00;99.90
19037;DHT22;9651;49.138;8.900;2023-04-24T10:17:15;15.10;99.90
19037;DHT22;9651;49.138;8.900;2023-04-24T10:21:18;14.80;99.90
19037;DHT22;9651;49.138;8.900;2023-04-24T10:25:21;15.00;99.90
19037;DHT22;9651;49.138;8.900;2023-04-24T10:29:24;15.60;99.90
19037;DHT22;9651;49.138;8.900;2023-04-24T10:33:27;17.70;99.90
19037;DHT22;9651;49.138;8.900;2023-04-24T10:37:36;19.30;99.90
19037;DHT22;9651;49.138;8.900;2023-04-24T10:41:38;19.80;99.90
19037;DHT22;9651;49.138;8.900;2023-04-24T10:45:40;19.40;99.90
19037;DHT22;9651;49.138;8.900;2023-04-24T10:49:42;18.50;99.90
19037;DHT22;9651;49.138;8.900;2023-04-24T10:53:46;17.70;99.90
19037;DHT22;9651;49.138;8.900;2023-04-24T10:58:04;16.50;99.90
19037;DHT22;9651;49.138;8.900;2023-04-24T11:02:08;15.80;99.90
19037;DHT22;9651;49.138;8.900;2023-04-24T11:06:10;15.50;99.90
19037;DHT22;9651;49.138;8.900;2023-04-24T11:10:26;15.20;99.90
19037;DHT22;9651;49.138;8.900;2023-04-24T11:14:28;14.90;99.90
19037;DHT22;9651;49.138;8.900;2023-04-24T11:18:37;14.40;99.90
19037;DHT22;9651;49.138;8.900;2023-04-24T11:22:39;14.20;99.90
19037;DHT22;9651;49.138;8.900;2023-04-24T11:26:44;14.10;99.90
19037;DHT22;9651;49.138;8.900;2023-04-24T11:30:46;14.10;99.90
19037;DHT22;9651;49.138;8.900;2023-04-24T11:34:49;14.20;99.90
19037;DHT22;9651;49.138;8.900;2023-04-24T11:38:52;15.20;99.90
19037;DHT22;9651;49.138;8.900;2023-04-24T11:42:55;16.30;99.90
19037;DHT22;9651;49.138;8.900;2023-04-24T11:46:57;16.30;99.90
19037;DHT22;9651;49.138;8.900;2023-04-24T11:51:01;16.00;99.90
19037;DHT22;9651;49.138;8.900;2023-04-24T11:55:05;16.60;99.90
19037;DHT22;9651;49.138;8.900;2023-04-24T11:59:09;16.40;99.90
19037;DHT22;9651;49.138;8.900;2023-04-24T12:03:11;15.90;99.90
19037;DHT22;9651;49.138;8.900;2023-04-24T12:07:13;15.60;99.90
19037;DHT22;9651;49.138;8.900;2023-04-24T12:11:16;15.30;99.90
19037;DHT22;9651;49.138;8.900;2023-04-24T12:15:23;15.20;99.90
19037;DHT22;9651;49.138;8.900;2023-04-24T12:19:29;16.20;99.90
19037;DHT22;9651;49.138;8.900;2023-04-24T12:23:34;19.10;99.90
19037;DHT22;9651;49.138;8.900;2023-04-24T12:27:36;22.40;99.90
19037;DHT22;9651;49.138;8.900;2023-04-24T12:31:39;22.90;99.90
19037;DHT22;9651;49.138;8.900;2023-04-24T12:35:41;24.10;99.60
19037;DHT22;9651;49.138;8.900;2023-04-24T12:39:58;24.30;97.40
19037;DHT22;9651;49.138;8.900;2023-04-24T12:44:00;22.80;96.10
19037;DHT22;9651;49.138;8.900;2023-04-24T12:48:04;21.70;97.60
19037;DHT22;9651;49.138;8.900;2023-04-24T12:52:06;21.90;98.70
19037;DHT22;9651;49.138;8.900;2023-04-24T12:56:08;19.80;99.90
19037;DHT22;9651;49.138;8.900;2023-04-24T13:00:11;18.30;99.90
19037;DHT22;9651;49.138;8.900;2023-04-24T13:04:15;17.10;99.90
19037;DHT22;9651;49.138;8.900;2023-04-24T13:08:17;16.50;99.90
19037;DHT22;9651;49.138;8.900;2023-04-24T13:12:19;15.90;99.90
19037;DHT22;9651;49.138;8.900;2023-04-24T13:16:22;15.80;99.90
19037;DHT22;9651;49.138;8.900;2023-04-24T13:20:25;15.70;99.90
19037;DHT22;9651;49.138;8.900;2023-04-24T13:24:28;15.50;99.90
19037;DHT22;9651;49.138;8.900;2023-04-24T13:28:30;15.40;99.90
19037;DHT22;9651;49.138;8.900;2023-04-24T13:32:32;15.60;99.90
19037;DHT22;9651;49.138;8.900;2023-04-24T13:36:37;15.50;99.90
19037;DHT22;9651;49.138;8.900;2023-04-24T13:40:39;15.60;99.90
19037;DHT22;9651;49.138;8.900;2023-04-24T13:44:41;16.70;99.90
19037;DHT22;9651;49.138;8.900;2023-04-24T13:48:43;17.10;99.90
19037;DHT22;9651;49.138;8.900;2023-04-24T13:52:47;17.20;99.90
19037;DHT22;9651;49.138;8.900;2023-04-24T13:56:51;16.90;99.90
19037;DHT22;9651;49.138;8.900;2023-04-24T14:00:52;16.60;99.90
19037;DHT22;9651;49.138;8.900;2023-04-24T14:04:54;16.40;99.90
19037;DHT22;9651;49.138;8.900;2023-04-24T14:08:58;16.10;99.90
19037;DHT22;9651;49.138;8.900;2023-04-24T14:13:00;15.90;99.90
19037;DHT22;9651;49.138;8.900;2023-04-24T14:17:03;15.60;99.90
19037;DHT22;9651;49.138;8.900;2023-04-24T14:21:05;15.50;99.90
19037;DHT22;9651;49.138;8.900;2023-04-24T14:25:09;15.50;99.90
19037;DHT22;9651;49.138;8.900;2023-04-24T14:29:11;15.50;99.90
19037;DHT22;9651;49.138;8.900;2023-04-24T14:33:13;15.70;99.90
19037;DHT22;9651;49.138;8.900;2023-04-24T14:37:15;16.00;99.90
19037;DHT22;9651;49.138;8.900;2023-04-24T14:41:18;16.10;99.90
19037;DHT22;9651;49.138;8.900;2023-04-24T14:45:20;16.00;99.90
19037;DHT22;9651;49.138;8.900;2023-04-24T14:49:23;15.80;99.90
19037;DHT22;9651;49.138;8.900;2023-04-24T14:53:25;16.50;99.90
19037;DHT22;9651;49.138;8.900;2023-04-24T14:57:29;16.90;99.90
19037;DHT22;9651;49.138;8.900;2023-04-24T15:01:31;16.70;99.90
19037;DHT22;9651;49.138;8.900;2023-04-24T15:05:33;17.10;99.90
19037;DHT22;9651;49.138;8.900;2023-04-24T15:09:34;16.90;99.90
19037;DHT22;9651;49.138;8.900;2023-04-24T15:13:38;16.50;99.90
19037;DHT22;9651;49.138;8.900;2023-04-24T15:17:40;16.70;99.90
19037;DHT22;9651;49.138;8.900;2023-04-24T15:21:41;17.10;99.90
19037;DHT22;9651;49.138;8.900;2023-04-24T15:25:45;17.10;99.90
19037;DHT22;9651;49.138;8.900;2023-04-24T15:29:48;17.20;99.90
19037;DHT22;9651;49.138;8.900;2023-04-24T15:33:50;18.70;99.90
19037;DHT22;9651;49.138;8.900;2023-04-24T15:37:52;19.80;99.90
19037;DHT22;9651;49.138;8.900;2023-04-24T15:41:54;19.70;99.90
19037;DHT22;9651;49.138;8.900;2023-04-24T15:45:57;18.60;99.90
19037;DHT22;9651;49.138;8.900;2023-04-24T15:49:59;19.60;99.90
19037;DHT22;9651;49.138;8.900;2023-04-24T15:54:01;19.00;99.90
19037;DHT22;9651;49.138;8.900;2023-04-24T15:58:03;17.90;99.90
19037;DHT22;9651;49.138;8.900;2023-04-24T16:02:08;17.00;99.90
19037;DHT22;9651;49.138;8.900;2023-04-24T16:06:11;16.40;99.90
19037;DHT22;9651;49.138;8.900;2023-04-24T16:10:13;16.10;99.90
19037;DHT22;9651;49.138;8.900;2023-04-24T16:14:15;15.90;99.90
19037;DHT22;9651;49.138;8.900;2023-04-24T16:18:18;15.70;99.90
19037;DHT22;9651;49.138;8.900;2023-04-24T16:22:20;15.20;99.90
19037;DHT22;9651;49.138;8.900;2023-04-24T16:26:22;14.80;99.90
19037;DHT22;9651;49.138;8.900;2023-04-24T16:30:24;14.50;99.90
19037;DHT22;9651;49.138;8.900;2023-04-24T16:34:28;14.50;99.90
19037;DHT22;9651;49.138;8.900;2023-04-24T16:38:30;14.40;99.90
19037;DHT22;9651;49.138;8.900;2023-04-24T16:42:31;14.20;99.90
19037;DHT22;9651;49.138;8.900;2023-04-24T16:46:33;14.30;99.90
19037;DHT22;9651;49.138;8.900;2023-04-24T16:50:37;14.60;99.90
19037;DHT22;9651;49.138;8.900;2023-04-24T16:54:39;15.20;99.90
19037;DHT22;9651;49.138;8.900;2023-04-24T16:58:41;15.30;99.90
19037;DHT22;9651;49.138;8.900;2023-04-24T17:02:43;14.60;99.90
19037;DHT22;9651;49.138;8.900;2023-04-24T17:06:49;14.00;99.90
19037;DHT22;9651;49.138;8.900;2023-04-24T17:10:51;13.70;99.90
19037;DHT22;9651;49.138;8.900;2023-04-24T17:14:53;13.50;99.90
19037;DHT22;9651;49.138;8.900;2023-04-24T17:18:55;13.20;99.90
19037;DHT22;9651;49.138;8.900;2023-04-24T17:22:58;12.90;99.90
19037;DHT22;9651;49.138;8.900;2023-04-24T17:27:00;12.80;99.90
19037;DHT22;9651;49.138;8.900;2023-04-24T17:31:02;12.70;99.90
19037;DHT22;9651;49.138;8.900;2023-04-24T17:35:05;12.60;99.90
19037;DHT22;9651;49.138;8.900;2023-04-24T17:39:09;12.50;99.90
19037;DHT22;9651;49.138;8.900;2023-04-24T17:43:11;12.40;99.90
19037;DHT22;9651;49.138;8.900;2023-04-24T17:47:17;12.30;99.90
19037;DHT22;9651;49.138;8.900;2023-04-24T17:51:21;12.20;99.90
19037;DHT22;9651;49.138;8.900;2023-04-24T17:55:25;12.10;99.90
19037;DHT22;9651;49.138;8.900;2023-04-24T17:59:26;12.10;99.90
19037;DHT22;9651;49.138;8.900;2023-04-24T18:03:28;11.90;99.90
19037;DHT22;9651;49.138;8.900;2023-04-24T18:07:30;11.90;99.90
19037;DHT22;9651;49.138;8.900;2023-04-24T18:11:35;11.80;99.90
19037;DHT22;9651;49.138;8.900;2023-04-24T18:15:39;11.70;99.90
19037;DHT22;9651;49.138;8.900;2023-04-24T18:19:42;11.70;99.90
19037;DHT22;9651;49.138;8.900;2023-04-24T18:23:44;11.60;99.90
19037;DHT22;9651;49.138;8.900;2023-04-24T18:27:48;11.40;99.90
19037;DHT22;9651;49.138;8.900;2023-04-24T18:31:50;11.20;99.90
19037;DHT22;9651;49.138;8.900;2023-04-24T18:35:52;11.10;99.90
19037;DHT22;9651;49.138;8.900;2023-04-24T18:39:54;11.00;99.90
19037;DHT22;9651;49.138;8.900;2023-04-24T18:43:57;11.00;99.90
19037;DHT22;9651;49.138;8.900;2023-04-24T18:47:59;10.90;99.90
19037;DHT22;9651;49.138;8.900;2023-04-24T18:52:01;10.90;99.90
19037;DHT22;9651;49.138;8.900;2023-04-24T18:56:03;10.80;99.90
19037;DHT22;9651;49.138;8.900;2023-04-24T19:00:07;10.80;99.90
19037;DHT22;9651;49.138;8.900;2023-04-24T19:04:10;10.70;99.90
19037;DHT22;9651;49.138;8.900;2023-04-24T19:08:12;10.60;99.90
19037;DHT22;9651;49.138;8.900;2023-04-24T19:12:13;10.70;99.90
19037;DHT22;9651;49.138;8.900;2023-04-24T19:16:17;10.60;99.90
19037;DHT22;9651;49.138;8.900;2023-04-24T19:20:19;10.50;99.90
19037;DHT22;9651;49.138;8.900;2023-04-24T19:24:21;10.50;99.90
19037;DHT22;9651;49.138;8.900;2023-04-24T19:28:23;10.40;99.90
19037;DHT22;9651;49.138;8.900;2023-04-24T19:32:26;10.30;99.90
19037;DHT22;9651;49.138;8.900;2023-04-24T19:36:29;10.30;99.90
19037;DHT22;9651;49.138;8.900;2023-04-24T19:40:30;10.20;99.90
19037;DHT22;9651;49.138;8.900;2023-04-24T19:44:32;10.10;99.90
19037;DHT22;9651;49.138;8.900;2023-04-24T19:48:36;10.20;99.90
19037;DHT22;9651;49.138;8.900;2023-04-24T19:52:38;10.20;99.90
19037;DHT22;9651;49.138;8.900;2023-04-24T19:56:39;10.10;99.90
19037;DHT22;9651;49.138;8.900;2023-04-24T20:00:41;10.20;99.90
19037;DHT22;9651;49.138;8.900;2023-04-24T20:04:45;10.30;99.90
19037;DHT22;9651;49.138;8.900;2023-04-24T20:08:47;10.20;99.90
19037;DHT22;9651;49.138;8.900;2023-04-24T20:12:49;10.20;99.90
19037;DHT22;9651;49.138;8.900;2023-04-24T20:16:51;10.20;99.90
19037;DHT22;9651;49.138;8.900;2023-04-24T20:20:55;10.10;99.90
19037;DHT22;9651;49.138;8.900;2023-04-24T20:24:59;10.10;99.90
19037;DHT22;9651;49.138;8.900;2023-04-24T20:29:01;10.20;99.90
19037;DHT22;9651;49.138;8.900;2023-04-24T20:33:03;10.10;99.90
19037;DHT22;9651;49.138;8.900;2023-04-24T20:37:06;10.10;99.90
19037;DHT22;9651;49.138;8.900;2023-04-24T20:41:08;10.10;99.90
19037;DHT22;9651;49.138;8.900;2023-04-24T20:45:10;10.20;99.90
19037;DHT22;9651;49.138;8.900;2023-04-24T20:49:12;10.20;99.90
19037;DHT22;9651;49.138;8.900;2023-04-24T20:53:15;10.30;99.90
19037;DHT22;9651;49.138;8.900;2023-04-24T20:57:17;10.30;99.90
19037;DHT22;9651;49.138;8.900;2023-04-24T21:01:19;10.30;99.90
19037;DHT22;9651;49.138;8.900;2023-04-24T21:05:21;10.30;99.90
19037;DHT22;9651;49.138;8.900;2023-04-24T21:09:25;10.20;99.90
19037;DHT22;9651;49.138;8.900;2023-04-24T21:13:27;10.10;99.90
19037;DHT22;9651;49.138;8.900;2023-04-24T21:17:28;10.10;99.90
19037;DHT22;9651;49.138;8.900;2023-04-24T21:21:30;10.00;99.90
19037;DHT22;9651;49.138;8.900;2023-04-24T21:25:35;10.00;99.90
19037;DHT22;9651;49.138;8.900;2023-04-24T21:29:37;10.00;99.90
19037;DHT22;9651;49.138;8.900;2023-04-24T21:33:39;10.00;99.90
19037;DHT22;9651;49.138;8.900;2023-04-24T21:37:41;10.00;99.90
19037;DHT22;9651;49.138;8.900;2023-04-24T21:41:44;10.00;99.90
19037;DHT22;9651;49.138;8.900;2023-04-24T21:45:47;9.90;99.90
19037;DHT22;9651;49.138;8.900;2023-04-24T21:49:49;9.90;99.90
19037;DHT22;9651;49.138;8.900;2023-04-24T21:53:51;9.90;99.90
19037;DHT22;9651;49.138;8.900;2023-04-24T21:57:55;9.90;99.90
19037;DHT22;9651;49.138;8.900;2023-04-24T22:01:56;9.80;99.90
19037;DHT22;9651;49.138;8.900;2023-04-24T22:05:58;9.80;99.90
19037;DHT22;9651;49.138;8.900;2023-04-24T22:10:00;9.80;99.90
19037;DHT22;9651;49.138;8.900;2023-04-24T22:14:05;9.80;99.90
19037;DHT22;9651;49.138;8.900;2023-04-24T22:18:07;9.80;99.90
19037;DHT22;9651;49.138;8.900;2023-04-24T22:22:09;9.90;99.90
19037;DHT22;9651;49.138;8.900;2023-04-24T22:26:10;9.80;99.90
19037;DHT22;9651;49.138;8.900;2023-04-24T22:30:14;9.90;99.90
19037;DHT22;9651;49.138;8.900;2023-04-24T22:34:16;9.80;99.90
19037;DHT22;9651;49.138;8.900;2023-04-24T22:38:19;9.90;99.90
19037;DHT22;9651;49.138;8.900;2023-04-24T22:42:21;9.90;99.90
19037;DHT22;9651;49.138;8.900;2023-04-24T22:46:24;9.80;99.90
19037;DHT22;9651;49.138;8.900;2023-04-24T22:50:26;9.70;99.90
19037;DHT22;9651;49.138;8.900;2023-04-24T22:54:28;9.70;99.90
19037;DHT22;9651;49.138;8.900;2023-04-24T22:58:31;9.70;99.90
19037;DHT22;9651;49.138;8.900;2023-04-24T23:02:34;9.60;99.90
19037;DHT22;9651;49.138;8.900;2023-04-24T23:06:36;9.60;99.90
19037;DHT22;9651;49.138;8.900;2023-04-24T23:10:38;9.60;99.90
19037;DHT22;9651;49.138;8.900;2023-04-24T23:14:40;9.50;99.90
19037;DHT22;9651;49.138;8.900;2023-04-24T23:18:43;9.50;99.90
19037;DHT22;9651;49.138;8.900;2023-04-24T23:22:46;9.40;99.90
19037;DHT22;9651;49.138;8.900;2023-04-24T23:26:48;9.30;99.90
19037;DHT22;9651;49.138;8.900;2023-04-24T23:30:50;9.30;99.90
19037;DHT22;9651;49.138;8.900;2023-04-24T23:34:53;9.30;99.90
19037;DHT22;9651;49.138;8.900;2023-04-24T23:38:56;9.30;99.90
19037;DHT22;9651;49.138;8.900;2023-04-24T23:42:57;9.30;99.90
19037;DHT22;9651;49.138;8.900;2023-04-24T23:46:59;9.30;99.90
19037;DHT22;9651;49.138;8.900;2023-04-24T23:51:03;9.30;99.90
19037;DHT22;9651;49.138;8.900;2023-04-24T23:55:06;9.30;99.90
19037;DHT22;9651;49.138;8.900;2023-04-24T23:59:08;9.30;99.90
